Time;durP1;ratioP1;P1;durP2;ratioP2;P2;SDS_P1;SDS_P2;PMS_P1;PMS_P2;Temp;Humidity;BMP_temperature;BMP_pressure;BME280_temperature;BME280_humidity;BME280_pressure;Samples;Min_cycle;Max_cycle;Signal;HPM_P1;HPM_P2
2023/02/08 00:01:07;;;;;;;27.23;22.50;;;;;;;-2.51;100.00;104084.50;10085349;28;20493;-65
2023/02/08 00:06:06;;;;;;;29.05;23.17;;;;;;;-2.55;100.00;104085.81;10099764;28;20097;-66
2023/02/08 00:11:04;;;;;;;33.03;23.38;;;;;;;-2.60;100.00;104080.91;10097442;28;20074;-65
2023/02/08 00:16:00;;;;;;;26.33;22.08;;;;;;;-2.65;100.00;104075.13;10090337;28;20062;-65
2023/02/08 00:20:57;;;;;;;29.90;23.45;;;;;;;-2.68;100.00;104067.38;10102817;28;20077;-66
2023/02/08 00:25:53;;;;;;;29.52;22.55;;;;;;;-2.73;100.00;104071.50;10092104;28;20074;-66
2023/02/08 00:30:50;;;;;;;26.98;22.65;;;;;;;-2.81;100.00;104065.06;10099594;28;20069;-66
2023/02/08 00:35:46;;;;;;;33.10;22.77;;;;;;;-2.75;100.00;104055.56;10100446;28;20042;-67
2023/02/08 00:40:43;;;;;;;29.98;22.42;;;;;;;-2.71;100.00;104040.06;10096486;28;20055;-67
2023/02/08 00:45:40;;;;;;;31.83;23.50;;;;;;;-2.70;100.00;104044.41;10102210;28;20038;-67
2023/02/08 00:50:36;;;;;;;28.67;22.10;;;;;;;-2.71;100.00;104043.59;10096350;28;20059;-67
2023/02/08 00:55:33;;;;;;;28.48;22.67;;;;;;;-2.67;100.00;104046.78;10105222;28;20059;-68
2023/02/08 01:00:29;;;;;;;28.55;21.52;;;;;;;-2.69;100.00;104046.09;10104441;28;20042;-68
2023/02/08 01:05:26;;;;;;;30.98;24.45;;;;;;;-2.75;100.00;104051.06;10107585;28;20059;-68
2023/02/08 01:10:22;;;;;;;34.53;24.33;;;;;;;-2.98;100.00;104041.69;10110431;28;20139;-68
2023/02/08 01:15:19;;;;;;;32.28;24.17;;;;;;;-2.88;100.00;104042.50;10107185;28;20101;-67
2023/02/08 01:20:15;;;;;;;29.52;24.27;;;;;;;-2.90;100.00;104041.81;10087627;28;20476;-65
2023/02/08 01:25:12;;;;;;;33.83;25.27;;;;;;;-3.01;100.00;104044.69;10106566;28;20125;-66
2023/02/08 01:30:09;;;;;;;29.33;24.30;;;;;;;-3.03;100.00;104046.66;10096099;28;20134;-66
2023/02/08 01:35:05;;;;;;;32.65;24.90;;;;;;;-3.09;100.00;104036.50;10097656;28;20070;-66
2023/02/08 01:40:02;;;;;;;34.45;25.10;;;;;;;-3.12;100.00;104036.81;10088518;28;20069;-66
2023/02/08 01:45:21;;;;;;;33.47;24.92;;;;;;;-3.10;100.00;104026.81;10111483;28;20058;-66
2023/02/08 01:50:21;;;;;;;32.33;24.98;;;;;;;-3.06;100.00;104022.84;10104194;28;20058;-65
2023/02/08 01:55:32;;;;;;;32.60;24.30;;;;;;;-3.08;100.00;104022.16;10106768;28;20054;-67
2023/02/08 02:00:30;;;;;;;34.58;24.67;;;;;;;-3.12;100.00;104026.09;10099656;28;20078;-67
2023/02/08 02:05:38;;;;;;;34.08;24.67;;;;;;;-3.14;100.00;104026.22;10095729;28;20047;-67
2023/02/08 02:10:37;;;;;;;34.45;25.50;;;;;;;-3.07;100.00;104029.19;10102714;28;20050;-67
2023/02/08 02:15:34;;;;;;;31.05;24.50;;;;;;;-3.12;100.00;104026.94;10099397;28;20051;-66
2023/02/08 02:21:18;;;;;;;34.70;25.88;;;;;;;-3.20;100.00;104033.03;10103406;28;20166;-67
2023/02/08 02:26:47;;;;;;;34.85;26.10;;;;;;;-3.28;100.00;104032.06;10110228;28;20417;-67
2023/02/08 02:31:49;;;;;;;35.85;25.60;;;;;;;-3.31;100.00;104022.47;10091249;28;20425;-66
2023/02/08 02:37:02;;;;;;;33.25;25.80;;;;;;;-3.41;100.00;104038.56;10104367;28;20047;-65
2023/02/08 02:47:38;;;;;;;36.35;26.65;;;;;;;-3.36;100.00;104046.16;10099181;28;20061;-66
2023/02/08 02:52:50;;;;;;;32.13;25.73;;;;;;;-3.36;100.00;104035.47;10103608;28;20043;-66
2023/02/08 02:57:50;;;;;;;34.25;26.60;;;;;;;-3.36;100.00;104046.16;10105011;28;20047;-66
2023/02/08 03:02:46;;;;;;;30.73;26.30;;;;;;;-3.46;100.00;104051.53;10097191;28;20050;-66
2023/02/08 03:08:38;;;;;;;38.88;28.05;;;;;;;-3.47;100.00;104035.59;10107284;28;20074;-66
2023/02/08 03:13:46;;;;;;;36.15;25.80;;;;;;;-3.45;100.00;104033.63;10078493;28;20141;-67
2023/02/08 03:19:06;;;;;;;35.65;24.90;;;;;;;-3.50;100.00;104049.28;10100250;28;20634;-67
2023/02/08 03:24:16;;;;;;;33.58;25.77;;;;;;;-3.57;100.00;104049.00;10094112;28;20078;-66
2023/02/08 03:29:31;;;;;;;35.58;24.92;;;;;;;-3.55;100.00;104056.84;10091036;28;20050;-66
2023/02/08 03:34:36;;;;;;;36.38;25.83;;;;;;;-3.56;100.00;104049.84;10094985;28;20498;-66
2023/02/08 03:39:36;;;;;;;35.35;24.98;;;;;;;-3.63;100.00;104049.56;10095089;28;20426;-66
2023/02/08 03:44:36;;;;;;;38.05;27.63;;;;;;;-3.62;100.00;104051.22;10099624;28;20046;-66
2023/02/08 03:49:35;;;;;;;37.55;26.17;;;;;;;-3.61;100.00;104048.41;10100323;28;20677;-66
2023/02/08 03:54:35;;;;;;;36.58;26.58;;;;;;;-3.67;100.00;104050.81;10096442;28;20134;-66
2023/02/08 03:59:38;;;;;;;36.47;27.05;;;;;;;-3.70;100.00;104049.25;10103790;28;20071;-66
2023/02/08 04:04:41;;;;;;;35.05;25.52;;;;;;;-3.75;100.00;104054.19;10095277;28;20042;-67
2023/02/08 04:09:38;;;;;;;38.72;26.48;;;;;;;-3.74;100.00;104047.84;10098032;28;20046;-67
2023/02/08 04:14:35;;;;;;;38.38;26.77;;;;;;;-3.88;100.00;104050.94;10106445;28;20058;-67
2023/02/08 04:19:32;;;;;;;36.45;27.02;;;;;;;-3.81;100.00;104057.41;10096727;28;20050;-67
2023/02/08 04:24:28;;;;;;;36.47;26.40;;;;;;;-3.82;100.00;104053.91;10092925;28;20488;-65
2023/02/08 04:29:25;;;;;;;36.78;26.58;;;;;;;-3.90;100.00;104042.22;10080615;28;20055;-65
2023/02/08 04:34:21;;;;;;;33.30;26.10;;;;;;;-3.94;100.00;104047.00;10093074;28;20063;-67
2023/02/08 04:39:18;;;;;;;35.80;25.88;;;;;;;-3.98;100.00;104034.06;10093652;28;20078;-67
2023/02/08 04:44:14;;;;;;;39.35;27.17;;;;;;;-4.07;100.00;104041.06;10093837;28;20417;-66
2023/02/08 04:49:11;;;;;;;36.42;25.75;;;;;;;-4.03;100.00;104043.34;10097860;28;20051;-66
2023/02/08 04:54:07;;;;;;;37.60;28.35;;;;;;;-3.99;100.00;104043.06;10100868;28;20043;-66
2023/02/08 04:59:03;;;;;;;38.47;29.02;;;;;;;-3.99;100.00;104043.06;10075455;28;20043;-67
2023/02/08 05:04:00;;;;;;;43.50;29.30;;;;;;;-3.99;100.00;104037.69;10088443;28;20087;-66
2023/02/08 05:08:56;;;;;;;40.25;27.33;;;;;;;-3.96;100.00;104037.44;10079159;28;20050;-65
2023/02/08 05:13:53;;;;;;;39.85;28.73;;;;;;;-3.95;100.00;104023.91;10093416;28;20074;-66
2023/02/08 05:18:49;;;;;;;42.05;29.80;;;;;;;-4.04;100.00;104025.63;10103628;28;20129;-67
2023/02/08 05:23:46;;;;;;;40.67;28.08;;;;;;;-4.07;100.00;104028.56;10098483;28;20043;-67
2023/02/08 05:28:42;;;;;;;40.75;29.40;;;;;;;-4.18;100.00;104034.03;10087927;28;20126;-67
2023/02/08 05:33:39;;;;;;;43.38;30.92;;;;;;;-4.18;100.00;104026.00;10096992;28;20129;-67
2023/02/08 05:38:35;;;;;;;45.65;31.55;;;;;;;-3.97;100.00;104027.72;10093476;28;20474;-66
2023/02/08 05:43:32;;;;;;;47.40;32.55;;;;;;;-3.95;100.00;104012.38;10086307;28;20070;-67
2023/02/08 05:48:31;;;;;;;44.03;29.45;;;;;;;-3.98;100.00;104007.34;10100497;28;20047;-67
2023/02/08 05:53:28;;;;;;;46.78;29.33;;;;;;;-3.93;100.00;104010.44;10097443;28;20051;-67
2023/02/08 05:58:25;;;;;;;50.90;29.42;;;;;;;-3.97;100.00;104014.34;10093407;28;20051;-66
2023/02/08 06:03:21;;;;;;;45.92;29.13;;;;;;;-4.00;100.00;104017.31;10101189;28;20050;-67
2023/02/08 06:08:18;;;;;;;48.38;30.58;;;;;;;-3.97;100.00;104009.00;10098735;28;20043;-67
2023/02/08 06:13:14;;;;;;;43.35;28.38;;;;;;;-4.03;100.00;104005.06;10099127;28;20421;-66
2023/02/08 06:18:11;;;;;;;42.75;29.13;;;;;;;-4.08;100.00;104013.50;10091481;28;20082;-67
2023/02/08 06:23:08;;;;;;;46.85;29.58;;;;;;;-4.10;100.00;104031.50;10104435;28;20505;-68
2023/02/08 06:28:05;;;;;;;50.20;30.30;;;;;;;-4.05;100.00;104034.59;10108023;28;20420;-68
2023/02/08 06:33:02;;;;;;;52.83;32.08;;;;;;;-4.04;100.00;104047.00;10095345;28;20508;-68
2023/02/08 06:37:59;;;;;;;48.00;29.70;;;;;;;-4.09;100.00;104033.19;10093613;28;20060;-68
2023/02/08 06:42:56;;;;;;;49.05;29.67;;;;;;;-4.09;100.00;104025.16;10094487;28;20083;-68
2023/02/08 06:47:52;;;;;;;50.95;29.08;;;;;;;-4.13;100.00;104036.28;10106928;28;20145;-69
2023/02/08 06:52:49;;;;;;;48.80;29.58;;;;;;;-4.10;100.00;104031.50;10102882;28;20121;-68
2023/02/08 06:57:45;;;;;;;45.88;27.98;;;;;;;-4.16;100.00;104026.72;10093869;28;20497;-68
2023/02/08 07:02:41;;;;;;;46.30;28.38;;;;;;;-4.16;100.00;104029.38;10100385;28;20552;-68
2023/02/08 07:07:38;;;;;;;46.60;27.63;;;;;;;-4.22;100.00;104027.28;10085181;28;20055;-68
2023/02/08 07:12:36;;;;;;;44.90;29.15;;;;;;;-4.23;100.00;104022.91;10100612;28;20051;-68
2023/02/08 07:17:32;;;;;;;44.90;28.10;;;;;;;-4.20;100.00;104019.97;10084525;28;20043;-69
2023/02/08 07:22:28;;;;;;;56.97;31.00;;;;;;;-4.25;100.00;104022.19;10090190;28;20070;-68
2023/02/08 07:27:25;;;;;;;48.45;29.25;;;;;;;-4.21;100.00;104020.94;10091633;28;20125;-69
2023/02/08 07:32:21;;;;;;;45.83;28.35;;;;;;;-4.11;100.00;104011.09;10091229;28;20524;-69
2023/02/08 07:37:18;;;;;;;49.25;31.10;;;;;;;-4.08;100.00;104008.16;10094456;28;20043;-70
2023/02/08 07:42:14;;;;;;;46.60;30.25;;;;;;;-3.95;100.00;104013.22;10081766;28;20138;-69
2023/02/08 07:47:11;;;;;;;53.13;30.13;;;;;;;-3.91;100.00;104011.13;10099259;28;20066;-67
2023/02/08 07:52:07;;;;;;;51.15;30.58;;;;;;;-3.85;100.00;104003.41;10093181;28;20497;-67
2023/02/08 07:57:04;;;;;;;52.63;32.42;;;;;;;-3.77;100.00;104018.72;10095241;28;20058;-68
2023/02/08 08:02:00;;;;;;;59.83;32.58;;;;;;;-3.87;100.00;104009.88;10098063;28;20043;-67
2023/02/08 08:06:57;;;;;;;51.03;32.65;;;;;;;-3.71;100.00;104015.50;10095421;28;20050;-69
2023/02/08 08:11:53;;;;;;;54.50;31.23;;;;;;;-3.68;100.00;104009.84;10096914;28;20054;-69
2023/02/08 08:16:50;;;;;;;55.05;31.73;;;;;;;-3.64;100.00;104005.91;10095753;28;20501;-67
2023/02/08 08:21:47;;;;;;;59.10;30.88;;;;;;;-3.63;100.00;104002.25;10098351;28;20093;-68
2023/02/08 08:26:44;;;;;;;56.28;31.23;;;;;;;-3.56;100.00;103997.16;10098349;28;20125;-68
2023/02/08 08:31:42;;;;;;;55.90;29.42;;;;;;;-3.49;100.00;103997.44;10091425;28;20528;-68
2023/02/08 08:36:39;;;;;;;56.42;29.70;;;;;;;-3.40;100.00;103991.22;10087250;28;20054;-67
2023/02/08 08:41:35;;;;;;;61.08;31.35;;;;;;;-3.30;100.00;104002.75;10088717;28;20043;-67
2023/02/08 08:46:32;;;;;;;60.80;33.03;;;;;;;-3.13;100.00;104002.97;10094822;28;20055;-68
2023/02/08 08:51:30;;;;;;;53.25;30.08;;;;;;;-3.03;100.00;103999.28;10100108;28;20089;-67
2023/02/08 08:56:27;;;;;;;52.28;29.55;;;;;;;-2.92;100.00;103990.25;10098547;28;20077;-68
2023/02/08 09:01:23;;;;;;;55.75;31.00;;;;;;;-2.84;100.00;103981.47;10095296;28;20077;-68
2023/02/08 09:06:20;;;;;;;51.45;27.80;;;;;;;-2.59;100.00;103979.94;10101719;28;20420;-68
2023/02/08 09:11:16;;;;;;;51.80;27.73;;;;;;;-2.41;100.00;103983.50;10094859;28;20043;-67
2023/02/08 09:16:15;;;;;;;52.53;27.58;;;;;;;-2.33;100.00;103988.91;10103917;28;20047;-67
2023/02/08 09:21:14;;;;;;;49.67;26.02;;;;;;;-2.29;100.00;103985.97;10099161;28;20055;-67
2023/02/08 09:26:13;;;;;;;50.28;27.38;;;;;;;-2.26;100.00;103980.28;10095438;28;20094;-67
2023/02/08 09:31:17;;;;;;;48.75;25.40;;;;;;;-2.01;100.00;103974.16;10089162;28;20047;-67
2023/02/08 09:36:14;;;;;;;46.90;25.63;;;;;;;-1.81;100.00;103973.97;10098106;28;20039;-67
2023/02/08 09:41:41;;;;;;;47.70;26.10;;;;;;;-1.55;100.00;103974.88;10094658;28;20044;-67
2023/02/08 09:46:42;;;;;;;43.50;24.35;;;;;;;-1.20;100.00;103967.72;10101655;28;20081;-68
2023/02/08 09:51:43;;;;;;;46.38;25.17;;;;;;;-0.90;100.00;103966.34;10096160;28;20066;-67
2023/02/08 09:56:42;;;;;;;46.88;24.70;;;;;;;-0.75;100.00;103965.72;10101518;28;20058;-68
2023/02/08 10:01:38;;;;;;;44.03;23.42;;;;;;;-0.67;100.00;103972.00;10100216;28;20155;-68
2023/02/08 10:06:35;;;;;;;38.78;23.27;;;;;;;-0.60;100.00;103963.25;10097454;28;20129;-67
2023/02/08 10:11:46;;;;;;;45.80;23.10;;;;;;;-0.03;100.00;103955.31;10095589;28;20126;-67
2023/02/08 10:16:43;;;;;;;45.53;23.98;;;;;;;0.73;100.00;103961.31;10097470;28;20126;-67
2023/02/08 10:21:59;;;;;;;40.35;22.40;;;;;;;1.18;100.00;103959.78;10097276;28;20122;-67
2023/02/08 10:26:55;;;;;;;45.90;24.40;;;;;;;1.47;100.00;103962.69;10098855;28;20078;-67
2023/02/08 10:32:22;;;;;;;45.63;24.83;;;;;;;1.43;100.00;103964.03;10094642;28;20047;-67
2023/02/08 10:37:26;;;;;;;45.78;22.63;;;;;;;1.26;100.00;103971.38;10096896;28;20608;-67
2023/02/08 10:42:27;;;;;;;39.88;22.35;;;;;;;1.32;100.00;103972.53;10097891;28;20480;-67
2023/02/08 10:47:26;;;;;;;46.33;23.60;;;;;;;1.33;100.00;103968.81;10096844;28;20074;-68
2023/02/08 10:52:23;;;;;;;43.40;21.52;;;;;;;1.29;100.00;103967.50;10102468;28;20476;-67
2023/02/08 10:57:25;;;;;;;41.95;21.63;;;;;;;1.71;100.00;103957.31;10080839;28;20113;-67
2023/02/08 11:02:25;;;;;;;40.40;22.83;;;;;;;1.60;100.00;103954.03;10099696;28;20054;-68
2023/02/08 11:07:22;;;;;;;40.53;22.00;;;;;;;1.39;100.00;103957.34;10091588;28;20054;-67
2023/02/08 11:12:21;;;;;;;39.47;21.05;;;;;;;1.12;100.00;103944.34;10092949;28;20047;-68
2023/02/08 11:17:26;;;;;;;37.15;21.00;;;;;;;1.43;100.00;103937.06;10087010;28;20050;-67
2023/02/08 11:22:25;;;;;;;40.92;22.60;;;;;;;2.15;100.00;103935.88;10098301;28;20063;-67
2023/02/08 11:27:27;;;;;;;42.05;20.33;;;;;;;2.17;100.00;103933.84;10106924;28;20054;-67
2023/02/08 11:32:24;;;;;;;42.88;22.05;;;;;;;2.40;100.00;103916.75;10091472;28;20142;-67
2023/02/08 11:37:27;;;;;;;39.67;19.98;;;;;;;2.43;100.00;103911.81;10093372;28;20462;-67
2023/02/08 11:42:50;;;;;;;35.00;19.60;;;;;;;2.65;100.00;103910.06;10082122;28;20129;-68
2023/02/08 11:47:47;;;;;;;40.50;21.83;;;;;;;3.21;100.00;103903.31;10091210;28;20047;-69
2023/02/08 11:52:57;;;;;;;39.83;20.65;;;;;;;3.59;100.00;103898.50;10099534;28;20043;-69
2023/02/08 11:57:58;;;;;;;36.70;21.38;;;;;;;3.80;100.00;103897.66;10100174;28;20130;-69
2023/02/08 12:02:59;;;;;;;37.58;19.08;;;;;;;3.90;100.00;103898.19;10099518;28;20134;-69
2023/02/08 12:08:22;;;;;;;36.38;20.45;;;;;;;3.82;100.00;103895.59;10091786;28;20512;-69
2023/02/08 12:13:37;;;;;;;33.25;19.52;;;;;;;4.25;100.00;103892.84;10104736;28;20119;-69
2023/02/08 12:19:03;;;;;;;34.85;19.50;;;;;;;4.26;100.00;103875.53;10093835;28;20051;-69
2023/02/08 12:24:33;;;;;;;34.53;16.98;;;;;;;4.41;100.00;103868.16;10086858;28;20043;-69
2023/02/08 12:29:42;;;;;;;32.22;17.33;;;;;;;4.55;100.00;103860.06;10095256;28;20047;-69
2023/02/08 12:34:55;;;;;;;32.60;17.75;;;;;;;5.41;100.00;103856.88;10098365;28;20512;-69
2023/02/08 12:45:43;;;;;;;32.95;18.17;;;;;;;6.11;100.00;103836.41;10091282;28;20062;-69
2023/02/08 12:50:57;;;;;;;33.65;18.13;;;;;;;6.60;99.31;103812.47;10106034;28;20051;-69
2023/02/08 12:55:56;;;;;;;30.92;17.23;;;;;;;7.76;82.42;103805.84;10116111;28;20058;-69
2023/02/08 13:00:58;;;;;;;29.17;16.65;;;;;;;9.14;73.37;103795.44;10111035;28;20073;-69
2023/02/08 13:05:54;;;;;;;28.27;17.07;;;;;;;9.45;70.20;103791.59;10102960;28;20131;-69
2023/02/08 13:11:13;;;;;;;24.05;16.30;;;;;;;10.30;59.55;103793.06;10101774;28;20059;-69
2023/02/08 13:16:20;;;;;;;27.42;16.25;;;;;;;10.17;55.87;103792.44;10103779;28;20039;-69
2023/02/08 13:21:23;;;;;;;23.40;16.30;;;;;;;9.85;64.06;103768.22;10105134;28;20497;-69
2023/02/08 13:26:27;;;;;;;27.52;16.13;;;;;;;9.25;61.63;103769.22;10098662;28;20056;-69
2023/02/08 13:31:31;;;;;;;24.77;17.08;;;;;;;8.42;64.99;103770.81;10097552;28;20049;-69
2023/02/08 13:36:47;;;;;;;25.23;15.57;;;;;;;7.93;67.66;103756.25;10095235;28;20083;-69
2023/02/08 13:41:50;;;;;;;22.10;14.32;;;;;;;7.96;69.08;103750.31;10104248;28;20082;-69
2023/02/08 13:46:49;;;;;;;23.75;14.80;;;;;;;7.73;66.91;103734.66;10104998;28;20047;-69
2023/02/08 13:51:53;;;;;;;21.33;13.60;;;;;;;8.52;67.34;103732.13;10103965;28;20125;-69
2023/02/08 13:56:52;;;;;;;21.90;14.52;;;;;;;8.48;63.68;103731.72;10109970;28;20126;-69
2023/02/08 14:02:10;;;;;;;21.73;14.02;;;;;;;8.25;68.41;103723.41;10089625;28;20090;-69
2023/02/08 14:07:20;;;;;;;18.67;13.32;;;;;;;8.05;69.82;103716.28;10102895;28;20512;-69
2023/02/08 14:12:30;;;;;;;22.88;13.68;;;;;;;8.15;62.78;103722.03;10106017;28;20043;-69
2023/02/08 14:17:30;;;;;;;20.50;13.88;;;;;;;8.58;68.32;103720.25;10108733;28;20047;-69
2023/02/08 14:22:37;;;;;;;22.88;13.90;;;;;;;9.31;64.06;103710.97;10106051;28;20519;-69
2023/02/08 14:27:39;;;;;;;18.80;13.18;;;;;;;9.19;63.04;103699.19;10101296;28;20472;-69
2023/02/08 14:32:38;;;;;;;24.40;13.50;;;;;;;8.98;68.52;103682.31;10094814;28;20113;-69
2023/02/08 14:37:36;;;;;;;22.48;13.23;;;;;;;9.47;63.06;103676.66;10101252;28;20062;-69
2023/02/08 14:42:56;;;;;;;21.17;12.60;;;;;;;9.90;62.34;103684.44;10111338;28;20222;-69
2023/02/08 14:47:56;;;;;;;22.77;14.73;;;;;;;10.45;61.59;103674.09;10108944;28;20046;-69
2023/02/08 14:53:16;;;;;;;21.23;14.15;;;;;;;10.24;60.15;103662.72;10106006;28;21700;-69
2023/02/08 14:58:20;;;;;;;21.10;13.80;;;;;;;10.05;61.97;103663.97;10106869;28;20051;-69
2023/02/08 15:03:17;;;;;;;21.75;13.73;;;;;;;8.97;67.00;103647.91;10102556;28;20049;-68
2023/02/08 15:08:19;;;;;;;24.23;14.75;;;;;;;7.44;77.28;103663.50;10106317;28;20042;-68
2023/02/08 15:13:23;;;;;;;24.35;15.40;;;;;;;6.09;86.76;103664.66;10105975;28;20133;-68
2023/02/08 15:18:23;;;;;;;24.50;14.88;;;;;;;5.27;96.32;103650.63;10103373;28;20394;-68
2023/02/08 15:23:22;;;;;;;22.65;14.50;;;;;;;4.90;100.00;103654.81;10102953;28;20051;-69
2023/02/08 15:28:21;;;;;;;23.25;14.40;;;;;;;4.53;100.00;103653.53;10108682;28;20130;-69
2023/02/08 15:33:18;;;;;;;26.73;16.35;;;;;;;4.45;100.00;103640.16;10103272;28;20460;-68
2023/02/08 15:38:19;;;;;;;24.60;15.70;;;;;;;4.40;100.00;103638.88;10102168;28;20544;-69
2023/02/08 15:43:19;;;;;;;23.23;15.15;;;;;;;4.14;100.00;103627.97;10106082;28;20045;-69
2023/02/08 15:48:15;;;;;;;24.20;14.82;;;;;;;4.07;100.00;103627.13;10110842;28;20050;-69
2023/02/08 15:53:14;;;;;;;21.75;14.60;;;;;;;3.81;100.00;103631.41;10103004;28;20057;-69
2023/02/08 15:58:26;;;;;;;25.02;15.93;;;;;;;3.62;100.00;103621.28;10101510;28;20057;-69
2023/02/08 16:03:24;;;;;;;28.42;17.92;;;;;;;3.41;100.00;103628.44;10106857;28;20109;-68
2023/02/08 16:08:24;;;;;;;27.08;18.17;;;;;;;3.24;100.00;103621.69;10104066;28;20054;-68
2023/02/08 16:13:27;;;;;;;28.38;15.18;;;;;;;3.13;100.00;103626.59;10105793;28;20181;-68
2023/02/08 16:18:51;;;;;;;26.48;15.20;;;;;;;2.94;100.00;103624.56;10110947;28;20049;-68
2023/02/08 16:23:49;;;;;;;;;;;;;;;2.89;100.00;103619.75;10105723;28;20105;-69
2023/02/08 16:29:17;;;;;;;26.10;15.38;;;;;;;2.73;100.00;103620.84;10094949;28;19961;-69
2023/02/08 16:34:17;;;;;;;28.08;17.23;;;;;;;2.65;100.00;103610.19;10089313;28;20987;-69
2023/02/08 16:39:13;;;;;;;29.50;15.77;;;;;;;2.42;100.00;103601.44;10092879;28;20129;-69
2023/02/08 16:44:23;;;;;;;34.40;17.83;;;;;;;2.33;100.00;103589.09;10092642;28;20122;-69
2023/02/08 16:49:19;;;;;;;23.15;16.27;;;;;;;2.25;100.00;103574.69;10097533;28;20047;-69
2023/02/08 16:54:21;;;;;;;27.23;16.73;;;;;;;2.01;100.00;103566.94;10101257;28;20513;-69
2023/02/08 16:59:17;;;;;;;29.63;17.80;;;;;;;1.96;100.00;103569.38;10093030;28;20425;-70
2023/02/08 17:04:14;;;;;;;24.35;15.32;;;;;;;1.88;100.00;103578.41;10098075;28;20038;-69
2023/02/08 17:09:12;;;;;;;25.15;15.80;;;;;;;1.83;100.00;103565.50;10088955;28;20111;-69
2023/02/08 17:14:09;;;;;;;27.02;16.45;;;;;;;1.79;100.00;103564.22;10091616;28;20461;-69
2023/02/08 17:19:05;;;;;;;25.90;16.38;;;;;;;1.65;100.00;103556.97;10100930;28;20058;-69
2023/02/08 17:24:02;;;;;;;26.52;16.10;;;;;;;1.62;100.00;103562.72;10102886;28;20441;-69
2023/02/08 17:28:59;;;;;;;29.02;17.08;;;;;;;1.49;100.00;103546.41;10096362;28;20526;-69
2023/02/08 17:34:02;;;;;;;26.48;16.40;;;;;;;1.36;100.00;103542.47;10096749;28;20141;-69
2023/02/08 17:39:00;;;;;;;26.80;17.48;;;;;;;1.29;100.00;103548.81;10107526;28;20118;-68
2023/02/08 17:43:56;;;;;;;28.50;16.60;;;;;;;1.12;100.00;103550.88;10099384;28;20051;-68
2023/02/08 17:48:53;;;;;;;29.83;18.00;;;;;;;1.10;100.00;103552.91;10104114;28;20048;-67
2023/02/08 17:53:50;;;;;;;29.35;18.88;;;;;;;1.01;100.00;103549.44;10102567;28;20043;-68
2023/02/08 17:58:48;;;;;;;39.78;18.55;;;;;;;0.97;100.00;103543.56;10094264;28;20055;-68
2023/02/08 18:03:50;;;;;;;34.70;19.30;;;;;;;0.82;100.00;103545.44;10111377;28;20047;-68
2023/02/08 18:08:46;;;;;;;36.58;20.02;;;;;;;0.76;100.00;103544.28;10111060;28;20062;-68
2023/02/08 18:13:44;;;;;;;32.63;19.52;;;;;;;0.72;100.00;103534.06;10105076;28;20444;-68
2023/02/08 18:18:41;;;;;;;36.40;21.67;;;;;;;0.67;100.00;103525.69;10105224;28;20051;-68
2023/02/08 18:23:38;;;;;;;36.83;20.08;;;;;;;0.59;100.00;103524.75;10091365;28;20074;-68
2023/02/08 18:28:35;;;;;;;36.70;22.17;;;;;;;0.48;100.00;103517.13;10105923;28;20516;-68
2023/02/08 18:33:32;;;;;;;37.33;22.58;;;;;;;0.40;100.00;103509.13;10107250;28;20039;-68
2023/02/08 18:38:29;;;;;;;38.20;21.50;;;;;;;0.37;100.00;103520.22;10093213;28;20500;-67
2023/02/08 18:43:26;;;;;;;41.03;25.40;;;;;;;0.19;100.00;103507.94;10098323;28;20047;-68
2023/02/08 18:48:23;;;;;;;37.05;20.98;;;;;;;0.27;100.00;103514.25;10096021;28;20518;-68
2023/02/08 18:53:19;;;;;;;41.08;22.50;;;;;;;0.18;100.00;103495.47;10106689;28;20485;-68
2023/02/08 18:58:16;;;;;;;43.78;22.73;;;;;;;0.06;100.00;103485.34;10089186;28;20047;-68
2023/02/08 19:03:12;;;;;;;41.83;23.80;;;;;;;-0.03;100.00;103477.31;10086205;28;20078;-67
2023/02/08 19:08:09;;;;;;;40.03;22.52;;;;;;;-0.07;100.00;103485.91;10094001;28;20130;-67
2023/02/08 19:13:09;;;;;;;43.08;24.15;;;;;;;-0.20;100.00;103480.31;10095937;28;20041;-67
2023/02/08 19:18:07;;;;;;;37.30;22.40;;;;;;;-0.22;100.00;103483.16;10106056;28;20043;-67
2023/02/08 19:23:06;;;;;;;41.08;22.05;;;;;;;-0.29;100.00;103472.28;10098344;28;20081;-67
2023/02/08 19:28:04;;;;;;;37.03;22.88;;;;;;;-0.28;100.00;103473.97;10092981;28;20512;-67
2023/02/08 19:33:00;;;;;;;43.13;23.60;;;;;;;-0.43;100.00;103479.25;10095969;28;20043;-67
2023/02/08 19:37:57;;;;;;;40.00;23.73;;;;;;;-0.40;100.00;103475.38;10105782;28;20493;-67
2023/02/08 19:42:53;;;;;;;39.42;23.48;;;;;;;-0.48;100.00;103478.13;10091689;28;20035;-68
2023/02/08 19:47:50;;;;;;;44.88;24.38;;;;;;;-0.61;100.00;103472.47;10105008;28;20053;-68
2023/02/08 19:52:47;;;;;;;40.58;25.52;;;;;;;-0.62;100.00;103477.00;10099704;28;20426;-68
2023/02/08 19:57:43;;;;;;;41.72;23.33;;;;;;;-0.64;100.00;103463.72;10092690;28;20053;-68
2023/02/08 20:02:40;;;;;;;42.63;23.38;;;;;;;-0.70;100.00;103468.97;10091971;28;20520;-68
2023/02/08 20:07:36;;;;;;;45.33;22.83;;;;;;;-0.89;100.00;103454.94;10108971;28;20050;-68
2023/02/08 20:12:33;;;;;;;43.05;23.10;;;;;;;-0.95;100.00;103449.41;10107245;28;20109;-68
2023/02/08 20:17:29;;;;;;;44.33;24.27;;;;;;;-0.95;100.00;103444.91;10106489;28;20137;-68
2023/02/08 20:22:25;;;;;;;43.38;26.27;;;;;;;-0.96;100.00;103453.13;10100818;28;20424;-68
2023/02/08 20:27:22;;;;;;;43.50;23.88;;;;;;;-1.06;100.00;103446.13;10107472;28;20054;-68
2023/02/08 20:32:18;;;;;;;42.03;23.42;;;;;;;-1.15;100.00;103439.09;10098704;28;20114;-67
2023/02/08 20:37:19;;;;;;;40.15;23.15;;;;;;;-1.18;100.00;103442.13;10099819;28;20439;-68
2023/02/08 20:42:15;;;;;;;41.50;23.85;;;;;;;-1.15;100.00;103449.84;10092476;28;20082;-68
2023/02/08 20:47:15;;;;;;;43.97;25.52;;;;;;;-1.19;100.00;103453.88;10103024;28;20058;-68
2023/02/08 20:52:11;;;;;;;45.65;24.10;;;;;;;-1.28;100.00;103446.84;10103206;28;20078;-68
2023/02/08 20:57:16;;;;;;;42.63;24.48;;;;;;;-1.37;100.00;103451.41;10089884;28;20075;-67
2023/02/08 21:02:18;;;;;;;39.17;22.98;;;;;;;-1.43;100.00;103441.34;10094023;28;20425;-68
2023/02/08 21:07:15;;;;;;;46.55;25.35;;;;;;;-1.46;100.00;103435.47;10105132;28;20737;-68
2023/02/08 21:12:12;;;;;;;41.85;24.98;;;;;;;-1.44;100.00;103438.81;10111212;28;20057;-66
2023/02/08 21:17:09;;;;;;;48.30;25.42;;;;;;;-1.47;100.00;103445.38;10103632;28;20050;-66
2023/02/08 21:22:06;;;;;;;43.88;24.98;;;;;;;-1.48;100.00;103439.19;10109366;28;20043;-67
2023/02/08 21:27:02;;;;;;;49.67;25.90;;;;;;;-1.54;100.00;103426.44;10098850;28;20047;-65
2023/02/08 21:31:58;;;;;;;42.35;24.90;;;;;;;-1.62;100.00;103431.00;10101842;28;20074;-65
2023/02/08 21:36:55;;;;;;;45.60;24.52;;;;;;;-1.61;100.00;103433.47;10104010;28;20532;-65
2023/02/08 21:41:54;;;;;;;47.80;24.65;;;;;;;-1.71;100.00;103427.47;10101604;28;20516;-65
2023/02/08 21:46:50;;;;;;;46.97;24.77;;;;;;;-1.78;100.00;103421.13;10104417;28;20078;-65
2023/02/08 21:57:04;;;;;;;48.53;26.70;;;;;;;-1.86;100.00;103391.59;10105814;28;20051;-65
2023/02/08 22:02:01;;;;;;;45.70;26.00;;;;;;;-1.86;100.00;103388.91;10107991;28;20125;-65
2023/02/08 22:06:57;;;;;;;46.95;26.30;;;;;;;-1.91;100.00;103384.91;10100804;28;20050;-65
2023/02/08 22:11:55;;;;;;;49.25;26.52;;;;;;;-1.96;100.00;103378.38;10101061;28;20050;-65
2023/02/08 22:16:51;;;;;;;48.10;25.95;;;;;;;-2.02;100.00;103369.19;10093282;28;20525;-65
2023/02/08 22:21:48;;;;;;;50.45;27.83;;;;;;;-2.19;100.00;103356.78;10108957;28;20046;-64
2023/02/08 22:26:44;;;;;;;49.78;27.77;;;;;;;-2.16;100.00;103359.09;10108764;28;20568;-64
2023/02/08 22:31:41;;;;;;;51.05;26.98;;;;;;;-2.23;100.00;103348.22;10099050;28;20050;-64
2023/02/08 22:36:37;;;;;;;53.80;29.02;;;;;;;-2.23;100.00;103347.38;10090198;28;20043;-64